sensor_id;sensor_type;location;lat;lon;timestamp;P1;durP1;ratioP1;P2;durP2;ratioP2
79147;SDS011;68562;51.600;6.524;2023-04-07T00:00:00;12.0;;;8.5;;
79147;SDS011;68562;51.600;6.524;2023-04-07T00:05:00;11.7;;;8.9;;
79147;SDS011;68562;51.600;6.524;2023-04-07T00:10:00;11.5;;;8.3;;
79147;SDS011;68562;51.600;6.524;2023-04-07T00:15:00;11.3;;;8.1;;
79147;SDS011;68562;51.600;6.524;2023-04-07T00:20:00;16.6;;;10.5;;
79147;SDS011;68562;51.600;6.524;2023-04-07T00:25:00;15.1;;;10.7;;
79147;SDS011;68562;51.600;6.524;2023-04-07T00:30:00;13.5;;;10.1;;
79147;SDS011;68562;51.600;6.524;2023-04-07T00:35:00;16.2;;;11.6;;
79147;SDS011;68562;51.600;6.524;2023-04-07T00:40:00;16.4;;;11.0;;
79147;SDS011;68562;51.600;6.524;2023-04-07T00:45:00;19.0;;;12.5;;
79147;SDS011;68562;51.600;6.524;2023-04-07T00:50:01;21.7;;;14.7;;
79147;SDS011;68562;51.600;6.524;2023-04-07T00:55:00;23.5;;;14.6;;
79147;SDS011;68562;51.600;6.524;2023-04-07T01:00:00;22.4;;;13.0;;
79147;SDS011;68562;51.600;6.524;2023-04-07T01:05:03;23.3;;;14.1;;
79147;SDS011;68562;51.600;6.524;2023-04-07T01:10:01;25.9;;;14.4;;
79147;SDS011;68562;51.600;6.524;2023-04-07T01:15:03;23.5;;;14.7;;
79147;SDS011;68562;51.600;6.524;2023-04-07T01:20:00;24.5;;;14.0;;
79147;SDS011;68562;51.600;6.524;2023-04-07T01:30:00;25.7;;;16.5;;
79147;SDS011;68562;51.600;6.524;2023-04-07T01:35:00;24.7;;;15.2;;
79147;SDS011;68562;51.600;6.524;2023-04-07T01:40:00;25.2;;;14.9;;
79147;SDS011;68562;51.600;6.524;2023-04-07T01:45:00;24.7;;;15.4;;
79147;SDS011;68562;51.600;6.524;2023-04-07T01:50:00;25.6;;;14.7;;
79147;SDS011;68562;51.600;6.524;2023-04-07T01:55:00;25.6;;;15.8;;
79147;SDS011;68562;51.600;6.524;2023-04-07T02:00:00;22.9;;;14.4;;
79147;SDS011;68562;51.600;6.524;2023-04-07T02:05:01;23.7;;;13.7;;
79147;SDS011;68562;51.600;6.524;2023-04-07T02:10:01;20.1;;;12.3;;
79147;SDS011;68562;51.600;6.524;2023-04-07T02:15:00;20.5;;;12.1;;
79147;SDS011;68562;51.600;6.524;2023-04-07T02:20:00;23.3;;;11.6;;
79147;SDS011;68562;51.600;6.524;2023-04-07T02:25:00;22.4;;;12.5;;
79147;SDS011;68562;51.600;6.524;2023-04-07T02:30:00;21.0;;;11.4;;
79147;SDS011;68562;51.600;6.524;2023-04-07T02:35:00;18.5;;;11.1;;
79147;SDS011;68562;51.600;6.524;2023-04-07T02:40:00;19.0;;;10.6;;
79147;SDS011;68562;51.600;6.524;2023-04-07T02:45:00;20.2;;;11.9;;
79147;SDS011;68562;51.600;6.524;2023-04-07T02:50:00;20.2;;;11.1;;
79147;SDS011;68562;51.600;6.524;2023-04-07T02:55:00;18.7;;;10.8;;
79147;SDS011;68562;51.600;6.524;2023-04-07T03:00:00;21.1;;;11.7;;
79147;SDS011;68562;51.600;6.524;2023-04-07T03:05:00;16.9;;;10.9;;
79147;SDS011;68562;51.600;6.524;2023-04-07T03:10:00;19.3;;;9.9;;
79147;SDS011;68562;51.600;6.524;2023-04-07T03:15:00;18.4;;;10.0;;
79147;SDS011;68562;51.600;6.524;2023-04-07T03:20:00;16.9;;;9.8;;
79147;SDS011;68562;51.600;6.524;2023-04-07T03:25:00;17.6;;;9.9;;
79147;SDS011;68562;51.600;6.524;2023-04-07T03:30:00;16.4;;;8.7;;
79147;SDS011;68562;51.600;6.524;2023-04-07T03:35:00;18.1;;;9.7;;
79147;SDS011;68562;51.600;6.524;2023-04-07T03:40:00;19.4;;;9.3;;
79147;SDS011;68562;51.600;6.524;2023-04-07T03:45:00;16.5;;;8.8;;
79147;SDS011;68562;51.600;6.524;2023-04-07T03:50:00;15.4;;;8.1;;
79147;SDS011;68562;51.600;6.524;2023-04-07T03:55:00;15.4;;;8.9;;
79147;SDS011;68562;51.600;6.524;2023-04-07T04:00:00;17.5;;;9.1;;
79147;SDS011;68562;51.600;6.524;2023-04-07T04:05:00;13.3;;;8.7;;
79147;SDS011;68562;51.600;6.524;2023-04-07T04:10:00;14.8;;;8.6;;
79147;SDS011;68562;51.600;6.524;2023-04-07T04:15:00;14.1;;;8.3;;
79147;SDS011;68562;51.600;6.524;2023-04-07T04:20:00;12.9;;;7.0;;
79147;SDS011;68562;51.600;6.524;2023-04-07T04:25:00;15.6;;;7.8;;
79147;SDS011;68562;51.600;6.524;2023-04-07T04:30:00;12.8;;;7.0;;
79147;SDS011;68562;51.600;6.524;2023-04-07T04:35:00;11.9;;;6.9;;
79147;SDS011;68562;51.600;6.524;2023-04-07T04:40:00;13.0;;;7.7;;
79147;SDS011;68562;51.600;6.524;2023-04-07T04:45:00;12.9;;;6.7;;
79147;SDS011;68562;51.600;6.524;2023-04-07T04:50:00;11.4;;;6.4;;
79147;SDS011;68562;51.600;6.524;2023-04-07T04:55:00;11.7;;;6.2;;
79147;SDS011;68562;51.600;6.524;2023-04-07T05:05:00;12.8;;;7.6;;
79147;SDS011;68562;51.600;6.524;2023-04-07T05:10:00;12.8;;;6.8;;
79147;SDS011;68562;51.600;6.524;2023-04-07T05:15:00;13.0;;;7.7;;
79147;SDS011;68562;51.600;6.524;2023-04-07T05:20:00;13.3;;;7.3;;
79147;SDS011;68562;51.600;6.524;2023-04-07T05:25:00;14.3;;;7.5;;
79147;SDS011;68562;51.600;6.524;2023-04-07T05:30:00;13.5;;;7.2;;
79147;SDS011;68562;51.600;6.524;2023-04-07T05:35:00;14.2;;;6.8;;
79147;SDS011;68562;51.600;6.524;2023-04-07T05:40:00;14.2;;;7.3;;
79147;SDS011;68562;51.600;6.524;2023-04-07T05:45:00;15.5;;;6.7;;
79147;SDS011;68562;51.600;6.524;2023-04-07T05:50:00;15.5;;;6.8;;
79147;SDS011;68562;51.600;6.524;2023-04-07T05:55:00;17.7;;;6.8;;
79147;SDS011;68562;51.600;6.524;2023-04-07T06:00:00;14.0;;;6.8;;
79147;SDS011;68562;51.600;6.524;2023-04-07T06:05:00;11.8;;;6.8;;
79147;SDS011;68562;51.600;6.524;2023-04-07T06:10:00;12.2;;;6.6;;
79147;SDS011;68562;51.600;6.524;2023-04-07T06:15:00;12.7;;;6.6;;
79147;SDS011;68562;51.600;6.524;2023-04-07T06:20:00;11.1;;;6.7;;
79147;SDS011;68562;51.600;6.524;2023-04-07T06:25:00;12.4;;;6.8;;
79147;SDS011;68562;51.600;6.524;2023-04-07T06:30:00;14.7;;;6.4;;
79147;SDS011;68562;51.600;6.524;2023-04-07T06:35:00;11.9;;;6.9;;
79147;SDS011;68562;51.600;6.524;2023-04-07T06:40:00;12.4;;;6.9;;
79147;SDS011;68562;51.600;6.524;2023-04-07T06:45:00;13.0;;;7.2;;
79147;SDS011;68562;51.600;6.524;2023-04-07T06:50:00;14.3;;;7.4;;
79147;SDS011;68562;51.600;6.524;2023-04-07T06:55:00;15.5;;;7.6;;
79147;SDS011;68562;51.600;6.524;2023-04-07T07:00:00;14.5;;;6.6;;
79147;SDS011;68562;51.600;6.524;2023-04-07T07:05:00;14.8;;;7.3;;
79147;SDS011;68562;51.600;6.524;2023-04-07T07:10:00;13.9;;;7.0;;
79147;SDS011;68562;51.600;6.524;2023-04-07T07:15:00;14.8;;;7.2;;
79147;SDS011;68562;51.600;6.524;2023-04-07T07:20:00;13.8;;;6.9;;
79147;SDS011;68562;51.600;6.524;2023-04-07T07:25:00;13.2;;;6.7;;
79147;SDS011;68562;51.600;6.524;2023-04-07T07:30:00;18.4;;;8.1;;
79147;SDS011;68562;51.600;6.524;2023-04-07T07:35:00;14.4;;;7.9;;
79147;SDS011;68562;51.600;6.524;2023-04-07T07:40:00;18.0;;;9.3;;
79147;SDS011;68562;51.600;6.524;2023-04-07T07:45:00;19.9;;;9.1;;
79147;SDS011;68562;51.600;6.524;2023-04-07T07:50:00;17.1;;;8.4;;
79147;SDS011;68562;51.600;6.524;2023-04-07T07:55:00;19.1;;;9.0;;
79147;SDS011;68562;51.600;6.524;2023-04-07T08:00:00;18.1;;;8.7;;
79147;SDS011;68562;51.600;6.524;2023-04-07T08:05:00;20.6;;;8.0;;
79147;SDS011;68562;51.600;6.524;2023-04-07T08:10:00;19.8;;;7.9;;
79147;SDS011;68562;51.600;6.524;2023-04-07T08:15:00;16.9;;;8.6;;
79147;SDS011;68562;51.600;6.524;2023-04-07T08:20:00;17.2;;;8.7;;
79147;SDS011;68562;51.600;6.524;2023-04-07T08:25:01;17.9;;;8.0;;
79147;SDS011;68562;51.600;6.524;2023-04-07T08:30:00;17.1;;;9.2;;
79147;SDS011;68562;51.600;6.524;2023-04-07T08:35:00;15.9;;;8.2;;
79147;SDS011;68562;51.600;6.524;2023-04-07T08:40:00;14.8;;;7.8;;
79147;SDS011;68562;51.600;6.524;2023-04-07T08:45:01;14.5;;;8.7;;
79147;SDS011;68562;51.600;6.524;2023-04-07T08:50:01;15.4;;;7.9;;
79147;SDS011;68562;51.600;6.524;2023-04-07T08:55:00;16.8;;;8.2;;
79147;SDS011;68562;51.600;6.524;2023-04-07T09:00:01;18.3;;;8.4;;
79147;SDS011;68562;51.600;6.524;2023-04-07T09:05:01;18.3;;;8.3;;
79147;SDS011;68562;51.600;6.524;2023-04-07T09:10:00;19.2;;;8.5;;
79147;SDS011;68562;51.600;6.524;2023-04-07T09:15:00;14.3;;;7.2;;
79147;SDS011;68562;51.600;6.524;2023-04-07T09:20:00;14.3;;;8.9;;
79147;SDS011;68562;51.600;6.524;2023-04-07T09:25:08;11.5;;;6.2;;
79147;SDS011;68562;51.600;6.524;2023-04-07T09:30:09;15.0;;;7.5;;
79147;SDS011;68562;51.600;6.524;2023-04-07T09:35:00;16.4;;;8.0;;
79147;SDS011;68562;51.600;6.524;2023-04-07T09:40:00;12.6;;;6.9;;
79147;SDS011;68562;51.600;6.524;2023-04-07T09:45:00;10.8;;;6.4;;
79147;SDS011;68562;51.600;6.524;2023-04-07T09:50:00;11.8;;;7.1;;
79147;SDS011;68562;51.600;6.524;2023-04-07T09:55:00;8.0;;;5.0;;
79147;SDS011;68562;51.600;6.524;2023-04-07T10:00:00;10.9;;;7.0;;
79147;SDS011;68562;51.600;6.524;2023-04-07T10:05:00;12.5;;;5.9;;
79147;SDS011;68562;51.600;6.524;2023-04-07T10:10:00;9.8;;;5.3;;
79147;SDS011;68562;51.600;6.524;2023-04-07T10:20:00;11.1;;;5.6;;
79147;SDS011;68562;51.600;6.524;2023-04-07T10:25:01;9.6;;;5.9;;
79147;SDS011;68562;51.600;6.524;2023-04-07T10:30:00;11.2;;;5.5;;
79147;SDS011;68562;51.600;6.524;2023-04-07T10:35:00;10.5;;;5.4;;
79147;SDS011;68562;51.600;6.524;2023-04-07T10:45:00;15.3;;;7.9;;
79147;SDS011;68562;51.600;6.524;2023-04-07T11:05:00;14.8;;;8.5;;
79147;SDS011;68562;51.600;6.524;2023-04-07T11:10:07;12.5;;;7.1;;
79147;SDS011;68562;51.600;6.524;2023-04-07T11:20:00;12.0;;;7.0;;
79147;SDS011;68562;51.600;6.524;2023-04-07T11:25:00;9.1;;;6.3;;
79147;SDS011;68562;51.600;6.524;2023-04-07T11:30:00;13.1;;;6.5;;
79147;SDS011;68562;51.600;6.524;2023-04-07T11:35:00;14.0;;;6.9;;
79147;SDS011;68562;51.600;6.524;2023-04-07T11:40:00;13.0;;;7.4;;
79147;SDS011;68562;51.600;6.524;2023-04-07T11:45:00;13.3;;;8.0;;
79147;SDS011;68562;51.600;6.524;2023-04-07T11:50:00;12.3;;;7.8;;
79147;SDS011;68562;51.600;6.524;2023-04-07T11:55:00;12.2;;;8.0;;
79147;SDS011;68562;51.600;6.524;2023-04-07T12:00:07;13.4;;;7.8;;
79147;SDS011;68562;51.600;6.524;2023-04-07T12:05:00;10.3;;;6.4;;
79147;SDS011;68562;51.600;6.524;2023-04-07T12:15:00;10.2;;;7.4;;
79147;SDS011;68562;51.600;6.524;2023-04-07T12:20:00;13.5;;;7.0;;
79147;SDS011;68562;51.600;6.524;2023-04-07T12:25:00;13.3;;;6.8;;
79147;SDS011;68562;51.600;6.524;2023-04-07T12:30:00;10.9;;;7.1;;
79147;SDS011;68562;51.600;6.524;2023-04-07T12:35:00;13.2;;;7.3;;
79147;SDS011;68562;51.600;6.524;2023-04-07T12:40:00;11.0;;;7.0;;
79147;SDS011;68562;51.600;6.524;2023-04-07T12:45:00;11.3;;;6.7;;
79147;SDS011;68562;51.600;6.524;2023-04-07T12:50:00;10.5;;;6.6;;
79147;SDS011;68562;51.600;6.524;2023-04-07T12:55:00;11.8;;;5.7;;
79147;SDS011;68562;51.600;6.524;2023-04-07T13:00:00;11.6;;;6.7;;
79147;SDS011;68562;51.600;6.524;2023-04-07T13:05:00;11.2;;;6.2;;
79147;SDS011;68562;51.600;6.524;2023-04-07T13:10:00;13.0;;;7.6;;
79147;SDS011;68562;51.600;6.524;2023-04-07T13:15:00;12.8;;;7.0;;
79147;SDS011;68562;51.600;6.524;2023-04-07T13:20:00;15.1;;;8.3;;
79147;SDS011;68562;51.600;6.524;2023-04-07T13:25:00;13.4;;;7.3;;
79147;SDS011;68562;51.600;6.524;2023-04-07T13:30:00;17.3;;;9.3;;
79147;SDS011;68562;51.600;6.524;2023-04-07T13:35:00;17.2;;;8.9;;
79147;SDS011;68562;51.600;6.524;2023-04-07T13:40:00;17.5;;;10.2;;
79147;SDS011;68562;51.600;6.524;2023-04-07T13:45:00;16.4;;;8.8;;
79147;SDS011;68562;51.600;6.524;2023-04-07T13:50:00;14.5;;;8.1;;
79147;SDS011;68562;51.600;6.524;2023-04-07T13:55:00;14.4;;;8.3;;
79147;SDS011;68562;51.600;6.524;2023-04-07T14:00:00;15.1;;;8.6;;
79147;SDS011;68562;51.600;6.524;2023-04-07T14:05:00;15.0;;;9.3;;
79147;SDS011;68562;51.600;6.524;2023-04-07T14:10:00;15.0;;;8.3;;
79147;SDS011;68562;51.600;6.524;2023-04-07T14:15:00;17.4;;;8.0;;
79147;SDS011;68562;51.600;6.524;2023-04-07T14:20:00;13.5;;;8.8;;
79147;SDS011;68562;51.600;6.524;2023-04-07T14:25:00;12.9;;;7.5;;
79147;SDS011;68562;51.600;6.524;2023-04-07T14:30:00;14.4;;;7.5;;
79147;SDS011;68562;51.600;6.524;2023-04-07T14:35:00;12.3;;;6.9;;
79147;SDS011;68562;51.600;6.524;2023-04-07T14:40:00;12.0;;;7.0;;
79147;SDS011;68562;51.600;6.524;2023-04-07T14:45:00;13.2;;;7.1;;
79147;SDS011;68562;51.600;6.524;2023-04-07T14:50:00;12.7;;;7.6;;
79147;SDS011;68562;51.600;6.524;2023-04-07T14:55:00;10.6;;;6.4;;
79147;SDS011;68562;51.600;6.524;2023-04-07T15:00:01;14.1;;;6.7;;
79147;SDS011;68562;51.600;6.524;2023-04-07T15:05:00;15.4;;;7.3;;
79147;SDS011;68562;51.600;6.524;2023-04-07T15:10:00;9.0;;;6.1;;
79147;SDS011;68562;51.600;6.524;2023-04-07T15:15:00;9.1;;;6.0;;
79147;SDS011;68562;51.600;6.524;2023-04-07T15:20:00;9.3;;;5.6;;
79147;SDS011;68562;51.600;6.524;2023-04-07T15:25:00;9.8;;;6.6;;
79147;SDS011;68562;51.600;6.524;2023-04-07T15:30:00;8.5;;;5.6;;
79147;SDS011;68562;51.600;6.524;2023-04-07T15:35:00;8.8;;;5.0;;
79147;SDS011;68562;51.600;6.524;2023-04-07T15:40:00;6.9;;;4.3;;
79147;SDS011;68562;51.600;6.524;2023-04-07T15:45:00;7.5;;;4.5;;
79147;SDS011;68562;51.600;6.524;2023-04-07T15:50:00;7.1;;;4.5;;
79147;SDS011;68562;51.600;6.524;2023-04-07T15:55:00;7.0;;;4.3;;
79147;SDS011;68562;51.600;6.524;2023-04-07T16:00:00;5.8;;;4.2;;
79147;SDS011;68562;51.600;6.524;2023-04-07T16:05:01;7.5;;;4.1;;
79147;SDS011;68562;51.600;6.524;2023-04-07T16:10:00;8.2;;;4.8;;
79147;SDS011;68562;51.600;6.524;2023-04-07T16:15:00;8.0;;;4.2;;
79147;SDS011;68562;51.600;6.524;2023-04-07T16:20:00;8.9;;;3.8;;
79147;SDS011;68562;51.600;6.524;2023-04-07T16:25:00;6.4;;;3.8;;
79147;SDS011;68562;51.600;6.524;2023-04-07T16:30:00;7.0;;;4.4;;
79147;SDS011;68562;51.600;6.524;2023-04-07T16:35:00;5.5;;;4.2;;
79147;SDS011;68562;51.600;6.524;2023-04-07T16:40:00;8.6;;;4.8;;
79147;SDS011;68562;51.600;6.524;2023-04-07T16:45:00;8.5;;;4.6;;
79147;SDS011;68562;51.600;6.524;2023-04-07T16:50:01;9.9;;;4.9;;
79147;SDS011;68562;51.600;6.524;2023-04-07T16:55:00;9.4;;;5.9;;
79147;SDS011;68562;51.600;6.524;2023-04-07T17:00:00;6.3;;;4.5;;
79147;SDS011;68562;51.600;6.524;2023-04-07T17:05:00;6.4;;;4.3;;
79147;SDS011;68562;51.600;6.524;2023-04-07T17:10:00;3.4;;;2.9;;
79147;SDS011;68562;51.600;6.524;2023-04-07T17:15:00;3.7;;;2.3;;
79147;SDS011;68562;51.600;6.524;2023-04-07T17:20:00;3.2;;;2.3;;
79147;SDS011;68562;51.600;6.524;2023-04-07T17:25:00;3.4;;;2.5;;
79147;SDS011;68562;51.600;6.524;2023-04-07T17:30:00;4.2;;;2.6;;
79147;SDS011;68562;51.600;6.524;2023-04-07T17:35:00;3.3;;;2.3;;
79147;SDS011;68562;51.600;6.524;2023-04-07T17:40:00;3.0;;;2.4;;
79147;SDS011;68562;51.600;6.524;2023-04-07T17:45:00;4.3;;;2.7;;
79147;SDS011;68562;51.600;6.524;2023-04-07T17:50:01;4.3;;;3.2;;
79147;SDS011;68562;51.600;6.524;2023-04-07T17:55:00;8.5;;;4.6;;
79147;SDS011;68562;51.600;6.524;2023-04-07T18:00:00;6.7;;;4.6;;
79147;SDS011;68562;51.600;6.524;2023-04-07T18:05:00;6.8;;;4.2;;
79147;SDS011;68562;51.600;6.524;2023-04-07T18:10:00;6.9;;;4.4;;
79147;SDS011;68562;51.600;6.524;2023-04-07T18:15:00;8.1;;;5.0;;
79147;SDS011;68562;51.600;6.524;2023-04-07T18:20:00;8.9;;;5.1;;
79147;SDS011;68562;51.600;6.524;2023-04-07T18:25:00;21.6;;;11.2;;
79147;SDS011;68562;51.600;6.524;2023-04-07T18:30:00;28.9;;;14.3;;
79147;SDS011;68562;51.600;6.524;2023-04-07T18:35:00;44.9;;;18.0;;
79147;SDS011;68562;51.600;6.524;2023-04-07T18:40:00;27.3;;;10.7;;
79147;SDS011;68562;51.600;6.524;2023-04-07T18:45:00;10.3;;;6.7;;
79147;SDS011;68562;51.600;6.524;2023-04-07T18:50:00;9.8;;;7.0;;
79147;SDS011;68562;51.600;6.524;2023-04-07T18:55:00;11.7;;;6.6;;
79147;SDS011;68562;51.600;6.524;2023-04-07T19:00:00;10.2;;;7.7;;
79147;SDS011;68562;51.600;6.524;2023-04-07T19:05:00;18.4;;;7.6;;
79147;SDS011;68562;51.600;6.524;2023-04-07T19:10:00;17.9;;;9.5;;
79147;SDS011;68562;51.600;6.524;2023-04-07T19:15:00;12.5;;;8.1;;
79147;SDS011;68562;51.600;6.524;2023-04-07T19:20:00;13.5;;;8.7;;
79147;SDS011;68562;51.600;6.524;2023-04-07T19:25:00;15.6;;;8.2;;
79147;SDS011;68562;51.600;6.524;2023-04-07T19:30:00;17.7;;;8.8;;
79147;SDS011;68562;51.600;6.524;2023-04-07T19:35:00;15.3;;;8.7;;
79147;SDS011;68562;51.600;6.524;2023-04-07T19:40:00;13.6;;;7.3;;
79147;SDS011;68562;51.600;6.524;2023-04-07T19:45:00;12.6;;;8.5;;
79147;SDS011;68562;51.600;6.524;2023-04-07T19:50:00;11.7;;;7.8;;
79147;SDS011;68562;51.600;6.524;2023-04-07T19:55:01;10.7;;;7.0;;
79147;SDS011;68562;51.600;6.524;2023-04-07T20:00:00;12.5;;;7.6;;
79147;SDS011;68562;51.600;6.524;2023-04-07T20:05:00;13.0;;;7.2;;
79147;SDS011;68562;51.600;6.524;2023-04-07T20:10:00;10.8;;;7.4;;
79147;SDS011;68562;51.600;6.524;2023-04-07T20:15:00;10.4;;;6.5;;
79147;SDS011;68562;51.600;6.524;2023-04-07T20:20:00;11.2;;;6.9;;
79147;SDS011;68562;51.600;6.524;2023-04-07T20:25:00;10.7;;;7.0;;
79147;SDS011;68562;51.600;6.524;2023-04-07T20:30:00;9.8;;;7.2;;
79147;SDS011;68562;51.600;6.524;2023-04-07T20:35:01;10.6;;;6.0;;
79147;SDS011;68562;51.600;6.524;2023-04-07T20:40:00;11.0;;;6.9;;
79147;SDS011;68562;51.600;6.524;2023-04-07T20:45:00;9.3;;;6.5;;
79147;SDS011;68562;51.600;6.524;2023-04-07T20:50:00;12.9;;;7.7;;
79147;SDS011;68562;51.600;6.524;2023-04-07T20:55:00;14.2;;;8.5;;
79147;SDS011;68562;51.600;6.524;2023-04-07T21:00:00;12.8;;;7.4;;
79147;SDS011;68562;51.600;6.524;2023-04-07T21:05:00;12.0;;;8.0;;
79147;SDS011;68562;51.600;6.524;2023-04-07T21:10:00;10.5;;;7.3;;
79147;SDS011;68562;51.600;6.524;2023-04-07T21:15:00;11.3;;;7.8;;
79147;SDS011;68562;51.600;6.524;2023-04-07T21:20:00;10.2;;;6.7;;
79147;SDS011;68562;51.600;6.524;2023-04-07T21:25:00;10.7;;;6.6;;
79147;SDS011;68562;51.600;6.524;2023-04-07T21:30:02;10.6;;;6.8;;
79147;SDS011;68562;51.600;6.524;2023-04-07T21:35:00;10.9;;;7.0;;
79147;SDS011;68562;51.600;6.524;2023-04-07T21:40:00;10.0;;;6.3;;
79147;SDS011;68562;51.600;6.524;2023-04-07T21:45:00;9.1;;;6.8;;
79147;SDS011;68562;51.600;6.524;2023-04-07T21:50:00;10.7;;;6.7;;
79147;SDS011;68562;51.600;6.524;2023-04-07T21:55:00;9.8;;;5.6;;
79147;SDS011;68562;51.600;6.524;2023-04-07T22:00:00;9.7;;;6.3;;
79147;SDS011;68562;51.600;6.524;2023-04-07T22:05:00;7.3;;;5.4;;
79147;SDS011;68562;51.600;6.524;2023-04-07T22:10:00;9.0;;;5.6;;
79147;SDS011;68562;51.600;6.524;2023-04-07T22:15:00;9.4;;;5.7;;
79147;SDS011;68562;51.600;6.524;2023-04-07T22:20:00;12.0;;;5.6;;
79147;SDS011;68562;51.600;6.524;2023-04-07T22:25:00;19.7;;;6.6;;
79147;SDS011;68562;51.600;6.524;2023-04-07T22:30:00;34.3;;;8.1;;
79147;SDS011;68562;51.600;6.524;2023-04-07T22:35:00;108.1;;;12.1;;
79147;SDS011;68562;51.600;6.524;2023-04-07T22:40:00;112.4;;;11.3;;
79147;SDS011;68562;51.600;6.524;2023-04-07T22:45:00;63.7;;;8.0;;
79147;SDS011;68562;51.600;6.524;2023-04-07T22:50:00;39.7;;;7.8;;
79147;SDS011;68562;51.600;6.524;2023-04-07T22:55:00;49.7;;;8.2;;
79147;SDS011;68562;51.600;6.524;2023-04-07T23:00:00;112.5;;;9.1;;
79147;SDS011;68562;51.600;6.524;2023-04-07T23:05:00;86.1;;;11.4;;
79147;SDS011;68562;51.600;6.524;2023-04-07T23:10:00;129.5;;;10.2;;
79147;SDS011;68562;51.600;6.524;2023-04-07T23:15:00;103.1;;;10.4;;
79147;SDS011;68562;51.600;6.524;2023-04-07T23:20:00;84.1;;;9.1;;
79147;SDS011;68562;51.600;6.524;2023-04-07T23:25:00;83.6;;;9.0;;
79147;SDS011;68562;51.600;6.524;2023-04-07T23:30:00;58.4;;;8.2;;
79147;SDS011;68562;51.600;6.524;2023-04-07T23:35:00;106.0;;;9.9;;
79147;SDS011;68562;51.600;6.524;2023-04-07T23:40:00;60.0;;;8.0;;
79147;SDS011;68562;51.600;6.524;2023-04-07T23:45:00;48.2;;;9.5;;
79147;SDS011;68562;51.600;6.524;2023-04-07T23:50:00;41.3;;;9.4;;
79147;SDS011;68562;51.600;6.524;2023-04-07T23:55:00;25.3;;;7.0;;
